sensor_id;sensor_type;location;lat;lon;timestamp;pressure;altitude;pressure_sealevel;temperature
75822;BMP180;64454;51.984;9.838;2023-07-20T00:01:53;99912.00;;;17.10
75822;BMP180;64454;51.984;9.838;2023-07-20T00:04:21;99906.00;;;17.20
75822;BMP180;64454;51.984;9.838;2023-07-20T00:06:48;99900.00;;;17.00
75822;BMP180;64454;51.984;9.838;2023-07-20T00:09:19;99907.00;;;17.20
75822;BMP180;64454;51.984;9.838;2023-07-20T00:11:50;99899.00;;;17.10
75822;BMP180;64454;51.984;9.838;2023-07-20T00:14:20;99896.00;;;17.10
75822;BMP180;64454;51.984;9.838;2023-07-20T00:16:49;99895.00;;;17.10
75822;BMP180;64454;51.984;9.838;2023-07-20T00:19:21;99895.00;;;17.10
75822;BMP180;64454;51.984;9.838;2023-07-20T00:21:49;99897.00;;;17.00
75822;BMP180;64454;51.984;9.838;2023-07-20T00:24:19;99892.00;;;16.80
75822;BMP180;64454;51.984;9.838;2023-07-20T00:26:46;99896.00;;;17.00
75822;BMP180;64454;51.984;9.838;2023-07-20T00:29:15;99891.00;;;17.00
75822;BMP180;64454;51.984;9.838;2023-07-20T00:31:42;99896.00;;;16.80
75822;BMP180;64454;51.984;9.838;2023-07-20T00:34:09;99889.00;;;16.80
75822;BMP180;64454;51.984;9.838;2023-07-20T00:36:36;99888.00;;;16.90
75822;BMP180;64454;51.984;9.838;2023-07-20T00:39:03;99888.00;;;17.00
75822;BMP180;64454;51.984;9.838;2023-07-20T00:41:32;99886.00;;;17.00
75822;BMP180;64454;51.984;9.838;2023-07-20T00:43:59;99883.00;;;16.90
75822;BMP180;64454;51.984;9.838;2023-07-20T00:46:26;99888.00;;;16.80
75822;BMP180;64454;51.984;9.838;2023-07-20T00:48:53;99884.00;;;16.70
75822;BMP180;64454;51.984;9.838;2023-07-20T00:51:22;99887.00;;;16.80
75822;BMP180;64454;51.984;9.838;2023-07-20T00:53:49;99882.00;;;16.70
75822;BMP180;64454;51.984;9.838;2023-07-20T00:56:16;99890.00;;;16.50
75822;BMP180;64454;51.984;9.838;2023-07-20T00:58:45;99887.00;;;16.70
75822;BMP180;64454;51.984;9.838;2023-07-20T01:01:12;99889.00;;;16.90
75822;BMP180;64454;51.984;9.838;2023-07-20T01:03:39;99896.00;;;17.00
75822;BMP180;64454;51.984;9.838;2023-07-20T01:06:24;99893.00;;;17.10
75822;BMP180;64454;51.984;9.838;2023-07-20T01:09:03;99896.00;;;17.00
75822;BMP180;64454;51.984;9.838;2023-07-20T01:11:40;99894.00;;;17.10
75822;BMP180;64454;51.984;9.838;2023-07-20T01:14:13;99897.00;;;17.30
75822;BMP180;64454;51.984;9.838;2023-07-20T01:16:41;99881.00;;;17.30
75822;BMP180;64454;51.984;9.838;2023-07-20T01:19:08;99888.00;;;17.10
75822;BMP180;64454;51.984;9.838;2023-07-20T01:21:50;99888.00;;;17.00
75822;BMP180;64454;51.984;9.838;2023-07-20T01:24:59;99892.00;;;17.20
75822;BMP180;64454;51.984;9.838;2023-07-20T01:30:55;99886.00;;;17.40
75822;BMP180;64454;51.984;9.838;2023-07-20T01:33:25;99887.00;;;17.30
75822;BMP180;64454;51.984;9.838;2023-07-20T01:35:56;99884.00;;;17.20
75822;BMP180;64454;51.984;9.838;2023-07-20T01:38:24;99887.00;;;17.40
75822;BMP180;64454;51.984;9.838;2023-07-20T01:40:52;99887.00;;;17.30
75822;BMP180;64454;51.984;9.838;2023-07-20T01:43:19;99890.00;;;17.30
75822;BMP180;64454;51.984;9.838;2023-07-20T01:45:46;99890.00;;;17.20
75822;BMP180;64454;51.984;9.838;2023-07-20T01:48:13;99885.00;;;17.20
75822;BMP180;64454;51.984;9.838;2023-07-20T01:50:42;99887.00;;;17.20
75822;BMP180;64454;51.984;9.838;2023-07-20T01:53:09;99888.00;;;17.30
75822;BMP180;64454;51.984;9.838;2023-07-20T01:55:37;99890.00;;;17.20
75822;BMP180;64454;51.984;9.838;2023-07-20T01:58:04;99891.00;;;17.00
75822;BMP180;64454;51.984;9.838;2023-07-20T02:00:31;99892.00;;;16.90
75822;BMP180;64454;51.984;9.838;2023-07-20T02:02:58;99888.00;;;17.00
75822;BMP180;64454;51.984;9.838;2023-07-20T02:05:25;99883.00;;;17.00
75822;BMP180;64454;51.984;9.838;2023-07-20T02:07:54;99890.00;;;17.00
75822;BMP180;64454;51.984;9.838;2023-07-20T02:10:21;99884.00;;;16.80
75822;BMP180;64454;51.984;9.838;2023-07-20T02:12:47;99896.00;;;16.80
75822;BMP180;64454;51.984;9.838;2023-07-20T02:15:15;99893.00;;;16.90
75822;BMP180;64454;51.984;9.838;2023-07-20T02:17:42;99894.00;;;16.90
75822;BMP180;64454;51.984;9.838;2023-07-20T02:20:10;99886.00;;;16.90
75822;BMP180;64454;51.984;9.838;2023-07-20T02:22:38;99887.00;;;16.60
75822;BMP180;64454;51.984;9.838;2023-07-20T02:25:08;99874.00;;;16.70
75822;BMP180;64454;51.984;9.838;2023-07-20T02:27:35;99887.00;;;16.90
75822;BMP180;64454;51.984;9.838;2023-07-20T02:30:03;99885.00;;;16.70
75822;BMP180;64454;51.984;9.838;2023-07-20T02:32:31;99889.00;;;16.70
75822;BMP180;64454;51.984;9.838;2023-07-20T02:34:58;99883.00;;;16.70
75822;BMP180;64454;51.984;9.838;2023-07-20T02:37:25;99885.00;;;16.70
75822;BMP180;64454;51.984;9.838;2023-07-20T02:39:52;99883.00;;;16.60
75822;BMP180;64454;51.984;9.838;2023-07-20T02:42:20;99884.00;;;16.80
75822;BMP180;64454;51.984;9.838;2023-07-20T02:44:48;99879.00;;;16.70
75822;BMP180;64454;51.984;9.838;2023-07-20T02:47:15;99884.00;;;16.70
75822;BMP180;64454;51.984;9.838;2023-07-20T02:49:42;99885.00;;;16.70
75822;BMP180;64454;51.984;9.838;2023-07-20T02:52:09;99887.00;;;16.70
75822;BMP180;64454;51.984;9.838;2023-07-20T02:54:36;99884.00;;;16.60
75822;BMP180;64454;51.984;9.838;2023-07-20T02:57:03;99884.00;;;16.40
75822;BMP180;64454;51.984;9.838;2023-07-20T02:59:32;99885.00;;;16.70
75822;BMP180;64454;51.984;9.838;2023-07-20T03:01:59;99888.00;;;16.60
75822;BMP180;64454;51.984;9.838;2023-07-20T03:04:26;99886.00;;;16.50
75822;BMP180;64454;51.984;9.838;2023-07-20T03:06:53;99888.00;;;16.30
75822;BMP180;64454;51.984;9.838;2023-07-20T03:09:20;99895.00;;;16.30
75822;BMP180;64454;51.984;9.838;2023-07-20T03:11:49;99895.00;;;16.40
75822;BMP180;64454;51.984;9.838;2023-07-20T03:14:18;99896.00;;;16.40
75822;BMP180;64454;51.984;9.838;2023-07-20T03:16:47;99895.00;;;16.40
75822;BMP180;64454;51.984;9.838;2023-07-20T03:19:16;99899.00;;;16.30
75822;BMP180;64454;51.984;9.838;2023-07-20T03:21:44;99894.00;;;16.20
75822;BMP180;64454;51.984;9.838;2023-07-20T03:24:11;99888.00;;;16.40
75822;BMP180;64454;51.984;9.838;2023-07-20T03:26:38;99887.00;;;16.30
75822;BMP180;64454;51.984;9.838;2023-07-20T03:29:05;99892.00;;;16.40
75822;BMP180;64454;51.984;9.838;2023-07-20T03:31:32;99884.00;;;16.30
75822;BMP180;64454;51.984;9.838;2023-07-20T03:34:00;99886.00;;;16.20
75822;BMP180;64454;51.984;9.838;2023-07-20T03:36:27;99887.00;;;16.20
75822;BMP180;64454;51.984;9.838;2023-07-20T03:38:54;99880.00;;;16.20
75822;BMP180;64454;51.984;9.838;2023-07-20T03:41:21;99869.00;;;16.10
75822;BMP180;64454;51.984;9.838;2023-07-20T03:43:48;99877.00;;;16.30
75822;BMP180;64454;51.984;9.838;2023-07-20T03:46:16;99874.00;;;16.20
75822;BMP180;64454;51.984;9.838;2023-07-20T03:48:43;99879.00;;;16.40
75822;BMP180;64454;51.984;9.838;2023-07-20T03:51:11;99882.00;;;16.40
75822;BMP180;64454;51.984;9.838;2023-07-20T03:53:38;99884.00;;;16.30
75822;BMP180;64454;51.984;9.838;2023-07-20T03:56:05;99879.00;;;16.50
75822;BMP180;64454;51.984;9.838;2023-07-20T03:58:32;99886.00;;;16.50
75822;BMP180;64454;51.984;9.838;2023-07-20T04:00:59;99885.00;;;16.60
75822;BMP180;64454;51.984;9.838;2023-07-20T04:03:27;99888.00;;;16.40
75822;BMP180;64454;51.984;9.838;2023-07-20T04:05:54;99888.00;;;16.30
75822;BMP180;64454;51.984;9.838;2023-07-20T04:08:23;99875.00;;;16.40
75822;BMP180;64454;51.984;9.838;2023-07-20T04:10:51;99876.00;;;16.40
75822;BMP180;64454;51.984;9.838;2023-07-20T04:13:18;99869.00;;;16.30
75822;BMP180;64454;51.984;9.838;2023-07-20T04:15:45;99884.00;;;16.70
75822;BMP180;64454;51.984;9.838;2023-07-20T04:18:12;99876.00;;;16.60
75822;BMP180;64454;51.984;9.838;2023-07-20T04:20:39;99876.00;;;16.70
75822;BMP180;64454;51.984;9.838;2023-07-20T04:23:06;99872.00;;;16.70
75822;BMP180;64454;51.984;9.838;2023-07-20T04:25:34;99877.00;;;16.60
75822;BMP180;64454;51.984;9.838;2023-07-20T04:28:05;99879.00;;;16.70
75822;BMP180;64454;51.984;9.838;2023-07-20T04:30:34;99885.00;;;16.60
75822;BMP180;64454;51.984;9.838;2023-07-20T04:33:02;99879.00;;;16.60
75822;BMP180;64454;51.984;9.838;2023-07-20T04:35:50;99887.00;;;16.70
75822;BMP180;64454;51.984;9.838;2023-07-20T04:38:17;99888.00;;;16.70
75822;BMP180;64454;51.984;9.838;2023-07-20T04:40:48;99887.00;;;16.70
75822;BMP180;64454;51.984;9.838;2023-07-20T04:43:17;99890.00;;;16.90
75822;BMP180;64454;51.984;9.838;2023-07-20T04:45:44;99897.00;;;16.80
75822;BMP180;64454;51.984;9.838;2023-07-20T04:48:13;99904.00;;;16.70
75822;BMP180;64454;51.984;9.838;2023-07-20T04:50:42;99912.00;;;17.00
75822;BMP180;64454;51.984;9.838;2023-07-20T04:53:10;99910.00;;;17.00
75822;BMP180;64454;51.984;9.838;2023-07-20T04:55:38;99906.00;;;16.60
75822;BMP180;64454;51.984;9.838;2023-07-20T04:58:06;99908.00;;;16.50
75822;BMP180;64454;51.984;9.838;2023-07-20T05:00:34;99918.00;;;16.70
75822;BMP180;64454;51.984;9.838;2023-07-20T05:03:01;99915.00;;;16.60
75822;BMP180;64454;51.984;9.838;2023-07-20T05:05:30;99911.00;;;16.70
75822;BMP180;64454;51.984;9.838;2023-07-20T05:07:57;99904.00;;;16.70
75822;BMP180;64454;51.984;9.838;2023-07-20T05:10:24;99910.00;;;17.00
75822;BMP180;64454;51.984;9.838;2023-07-20T05:12:51;99902.00;;;17.00
75822;BMP180;64454;51.984;9.838;2023-07-20T05:15:19;99907.00;;;17.20
75822;BMP180;64454;51.984;9.838;2023-07-20T05:17:46;99915.00;;;17.60
75822;BMP180;64454;51.984;9.838;2023-07-20T05:20:14;99908.00;;;17.40
75822;BMP180;64454;51.984;9.838;2023-07-20T05:22:42;99898.00;;;17.20
75822;BMP180;64454;51.984;9.838;2023-07-20T05:25:10;99900.00;;;17.20
75822;BMP180;64454;51.984;9.838;2023-07-20T05:27:39;99900.00;;;17.20
75822;BMP180;64454;51.984;9.838;2023-07-20T05:30:07;99905.00;;;17.20
75822;BMP180;64454;51.984;9.838;2023-07-20T05:32:35;99911.00;;;17.60
75822;BMP180;64454;51.984;9.838;2023-07-20T05:35:03;99920.00;;;17.60
75822;BMP180;64454;51.984;9.838;2023-07-20T05:37:30;99923.00;;;17.70
75822;BMP180;64454;51.984;9.838;2023-07-20T05:39:57;99924.00;;;17.40
75822;BMP180;64454;51.984;9.838;2023-07-20T05:42:24;99928.00;;;17.70
75822;BMP180;64454;51.984;9.838;2023-07-20T05:44:51;99916.00;;;17.50
75822;BMP180;64454;51.984;9.838;2023-07-20T05:47:19;99920.00;;;17.60
75822;BMP180;64454;51.984;9.838;2023-07-20T05:49:48;99929.00;;;17.40
75822;BMP180;64454;51.984;9.838;2023-07-20T05:52:15;99922.00;;;17.50
75822;BMP180;64454;51.984;9.838;2023-07-20T05:54:41;99934.00;;;17.60
75822;BMP180;64454;51.984;9.838;2023-07-20T05:57:08;99929.00;;;17.20
75822;BMP180;64454;51.984;9.838;2023-07-20T05:59:35;99932.00;;;17.20
75822;BMP180;64454;51.984;9.838;2023-07-20T06:02:04;99940.00;;;17.30
75822;BMP180;64454;51.984;9.838;2023-07-20T06:04:31;99931.00;;;17.40
75822;BMP180;64454;51.984;9.838;2023-07-20T06:06:59;99933.00;;;17.30
75822;BMP180;64454;51.984;9.838;2023-07-20T06:09:26;99930.00;;;17.50
75822;BMP180;64454;51.984;9.838;2023-07-20T06:11:53;99924.00;;;17.30
75822;BMP180;64454;51.984;9.838;2023-07-20T06:14:20;99932.00;;;17.70
75822;BMP180;64454;51.984;9.838;2023-07-20T06:16:47;99943.00;;;17.20
75822;BMP180;64454;51.984;9.838;2023-07-20T06:19:17;99944.00;;;17.60
75822;BMP180;64454;51.984;9.838;2023-07-20T06:21:44;99939.00;;;17.60
75822;BMP180;64454;51.984;9.838;2023-07-20T06:24:13;99953.00;;;17.30
75822;BMP180;64454;51.984;9.838;2023-07-20T06:26:41;99954.00;;;17.10
75822;BMP180;64454;51.984;9.838;2023-07-20T06:29:08;99952.00;;;17.00
75822;BMP180;64454;51.984;9.838;2023-07-20T06:31:36;99957.00;;;17.00
75822;BMP180;64454;51.984;9.838;2023-07-20T06:34:04;99958.00;;;16.90
75822;BMP180;64454;51.984;9.838;2023-07-20T06:36:31;99969.00;;;16.70
75822;BMP180;64454;51.984;9.838;2023-07-20T06:38:58;99971.00;;;16.60
75822;BMP180;64454;51.984;9.838;2023-07-20T06:41:26;99972.00;;;16.70
75822;BMP180;64454;51.984;9.838;2023-07-20T06:43:53;99975.00;;;16.60
75822;BMP180;64454;51.984;9.838;2023-07-20T06:46:24;99977.00;;;16.80
75822;BMP180;64454;51.984;9.838;2023-07-20T06:48:51;99977.00;;;16.90
75822;BMP180;64454;51.984;9.838;2023-07-20T06:51:19;99983.00;;;17.00
75822;BMP180;64454;51.984;9.838;2023-07-20T06:53:46;99979.00;;;16.40
75822;BMP180;64454;51.984;9.838;2023-07-20T06:56:13;99979.00;;;16.60
75822;BMP180;64454;51.984;9.838;2023-07-20T06:58:41;99980.00;;;16.90
75822;BMP180;64454;51.984;9.838;2023-07-20T07:01:09;99982.00;;;17.20
75822;BMP180;64454;51.984;9.838;2023-07-20T07:03:35;99980.00;;;17.30
75822;BMP180;64454;51.984;9.838;2023-07-20T07:06:03;99988.00;;;17.30
75822;BMP180;64454;51.984;9.838;2023-07-20T07:08:30;99980.00;;;17.60
75822;BMP180;64454;51.984;9.838;2023-07-20T07:10:57;99994.00;;;17.70
75822;BMP180;64454;51.984;9.838;2023-07-20T07:13:24;99986.00;;;17.80
75822;BMP180;64454;51.984;9.838;2023-07-20T07:15:52;99992.00;;;18.20
75822;BMP180;64454;51.984;9.838;2023-07-20T07:18:19;100000.00;;;18.10
75822;BMP180;64454;51.984;9.838;2023-07-20T07:20:53;99994.00;;;18.10
75822;BMP180;64454;51.984;9.838;2023-07-20T07:23:20;99991.00;;;18.10
75822;BMP180;64454;51.984;9.838;2023-07-20T07:25:48;99992.00;;;18.50
75822;BMP180;64454;51.984;9.838;2023-07-20T07:28:15;99998.00;;;18.30
75822;BMP180;64454;51.984;9.838;2023-07-20T07:30:42;99992.00;;;18.70
75822;BMP180;64454;51.984;9.838;2023-07-20T07:33:10;99993.00;;;18.70
75822;BMP180;64454;51.984;9.838;2023-07-20T07:35:38;100000.00;;;19.00
75822;BMP180;64454;51.984;9.838;2023-07-20T07:38:05;100000.00;;;19.00
75822;BMP180;64454;51.984;9.838;2023-07-20T07:40:32;100002.00;;;18.90
75822;BMP180;64454;51.984;9.838;2023-07-20T07:42:59;100001.00;;;18.90
75822;BMP180;64454;51.984;9.838;2023-07-20T07:45:26;100007.00;;;18.70
75822;BMP180;64454;51.984;9.838;2023-07-20T07:47:53;100005.00;;;18.60
75822;BMP180;64454;51.984;9.838;2023-07-20T07:50:22;100016.00;;;18.60
75822;BMP180;64454;51.984;9.838;2023-07-20T07:52:49;100011.00;;;18.70
75822;BMP180;64454;51.984;9.838;2023-07-20T07:55:16;100008.00;;;18.50
75822;BMP180;64454;51.984;9.838;2023-07-20T07:57:43;100018.00;;;18.60
75822;BMP180;64454;51.984;9.838;2023-07-20T08:00:12;100025.00;;;18.40
75822;BMP180;64454;51.984;9.838;2023-07-20T08:02:41;100020.00;;;18.30
75822;BMP180;64454;51.984;9.838;2023-07-20T08:05:08;100022.00;;;18.50
75822;BMP180;64454;51.984;9.838;2023-07-20T08:07:38;100028.00;;;18.40
75822;BMP180;64454;51.984;9.838;2023-07-20T08:10:06;100026.00;;;18.20
75822;BMP180;64454;51.984;9.838;2023-07-20T08:12:34;100033.00;;;18.20
75822;BMP180;64454;51.984;9.838;2023-07-20T08:15:01;100030.00;;;17.90
75822;BMP180;64454;51.984;9.838;2023-07-20T08:17:29;100037.00;;;18.30
75822;BMP180;64454;51.984;9.838;2023-07-20T08:19:56;100036.00;;;18.80
75822;BMP180;64454;51.984;9.838;2023-07-20T08:22:22;100038.00;;;18.90
75822;BMP180;64454;51.984;9.838;2023-07-20T08:24:51;100036.00;;;19.50
75822;BMP180;64454;51.984;9.838;2023-07-20T08:27:18;100029.00;;;20.20
75822;BMP180;64454;51.984;9.838;2023-07-20T08:29:45;100031.00;;;20.30
75822;BMP180;64454;51.984;9.838;2023-07-20T08:32:12;100028.00;;;20.70
75822;BMP180;64454;51.984;9.838;2023-07-20T08:34:41;100026.00;;;20.60
75822;BMP180;64454;51.984;9.838;2023-07-20T08:37:08;100033.00;;;20.70
75822;BMP180;64454;51.984;9.838;2023-07-20T08:39:35;100021.00;;;20.90
75822;BMP180;64454;51.984;9.838;2023-07-20T08:42:05;100019.00;;;21.50
75822;BMP180;64454;51.984;9.838;2023-07-20T08:44:35;100022.00;;;22.00
75822;BMP180;64454;51.984;9.838;2023-07-20T08:47:04;100024.00;;;22.10
75822;BMP180;64454;51.984;9.838;2023-07-20T08:49:33;100025.00;;;22.00
75822;BMP180;64454;51.984;9.838;2023-07-20T08:52:01;100027.00;;;22.40
75822;BMP180;64454;51.984;9.838;2023-07-20T08:54:31;100025.00;;;22.30
75822;BMP180;64454;51.984;9.838;2023-07-20T08:57:04;100030.00;;;22.60
75822;BMP180;64454;51.984;9.838;2023-07-20T08:59:34;100036.00;;;22.40
75822;BMP180;64454;51.984;9.838;2023-07-20T09:02:05;100044.00;;;22.10
75822;BMP180;64454;51.984;9.838;2023-07-20T09:04:34;100025.00;;;22.00
75822;BMP180;64454;51.984;9.838;2023-07-20T09:07:02;100028.00;;;22.40
75822;BMP180;64454;51.984;9.838;2023-07-20T09:09:29;100020.00;;;22.70
75822;BMP180;64454;51.984;9.838;2023-07-20T09:11:56;100029.00;;;23.00
75822;BMP180;64454;51.984;9.838;2023-07-20T09:14:24;100026.00;;;23.40
75822;BMP180;64454;51.984;9.838;2023-07-20T09:16:54;100028.00;;;23.20
75822;BMP180;64454;51.984;9.838;2023-07-20T09:19:21;100028.00;;;23.40
75822;BMP180;64454;51.984;9.838;2023-07-20T09:21:50;100031.00;;;23.80
75822;BMP180;64454;51.984;9.838;2023-07-20T09:24:20;100030.00;;;24.20
75822;BMP180;64454;51.984;9.838;2023-07-20T09:26:49;100023.00;;;24.40
75822;BMP180;64454;51.984;9.838;2023-07-20T09:29:20;100028.00;;;24.40
75822;BMP180;64454;51.984;9.838;2023-07-20T09:32:01;100048.00;;;24.00
75822;BMP180;64454;51.984;9.838;2023-07-20T09:34:29;100057.00;;;23.70
75822;BMP180;64454;51.984;9.838;2023-07-20T09:36:57;100033.00;;;23.90
75822;BMP180;64454;51.984;9.838;2023-07-20T09:39:24;100035.00;;;24.30
75822;BMP180;64454;51.984;9.838;2023-07-20T09:41:52;100030.00;;;24.20
75822;BMP180;64454;51.984;9.838;2023-07-20T09:44:20;100050.00;;;24.60
75822;BMP180;64454;51.984;9.838;2023-07-20T09:46:48;100033.00;;;24.80
75822;BMP180;64454;51.984;9.838;2023-07-20T09:49:20;100053.00;;;24.10
75822;BMP180;64454;51.984;9.838;2023-07-20T09:51:48;100031.00;;;24.20
75822;BMP180;64454;51.984;9.838;2023-07-20T09:54:18;100035.00;;;24.60
75822;BMP180;64454;51.984;9.838;2023-07-20T09:56:50;100032.00;;;24.80
75822;BMP180;64454;51.984;9.838;2023-07-20T09:59:19;100034.00;;;24.80
75822;BMP180;64454;51.984;9.838;2023-07-20T10:01:49;100032.00;;;25.10
75822;BMP180;64454;51.984;9.838;2023-07-20T10:04:22;100049.00;;;25.30
75822;BMP180;64454;51.984;9.838;2023-07-20T10:06:54;100051.00;;;24.20
75822;BMP180;64454;51.984;9.838;2023-07-20T10:09:24;100059.00;;;23.50
75822;BMP180;64454;51.984;9.838;2023-07-20T10:11:52;100056.00;;;23.90
75822;BMP180;64454;51.984;9.838;2023-07-20T10:14:20;100029.00;;;24.10
75822;BMP180;64454;51.984;9.838;2023-07-20T10:16:51;100037.00;;;25.00
75822;BMP180;64454;51.984;9.838;2023-07-20T10:19:26;100032.00;;;25.60
75822;BMP180;64454;51.984;9.838;2023-07-20T10:22:03;100045.00;;;25.90
75822;BMP180;64454;51.984;9.838;2023-07-20T10:24:35;100053.00;;;25.50
75822;BMP180;64454;51.984;9.838;2023-07-20T10:27:03;100054.00;;;24.80
75822;BMP180;64454;51.984;9.838;2023-07-20T10:29:32;100049.00;;;24.50
75822;BMP180;64454;51.984;9.838;2023-07-20T10:32:00;100041.00;;;24.30
75822;BMP180;64454;51.984;9.838;2023-07-20T10:34:29;100038.00;;;24.00
75822;BMP180;64454;51.984;9.838;2023-07-20T10:36:56;100055.00;;;23.90
75822;BMP180;64454;51.984;9.838;2023-07-20T10:39:24;100054.00;;;23.00
75822;BMP180;64454;51.984;9.838;2023-07-20T10:42:00;100044.00;;;23.80
75822;BMP180;64454;51.984;9.838;2023-07-20T10:44:30;100041.00;;;24.30
75822;BMP180;64454;51.984;9.838;2023-07-20T10:47:01;100029.00;;;24.60
75822;BMP180;64454;51.984;9.838;2023-07-20T10:49:33;100030.00;;;25.10
75822;BMP180;64454;51.984;9.838;2023-07-20T10:52:04;100017.00;;;25.30
75822;BMP180;64454;51.984;9.838;2023-07-20T10:54:48;100026.00;;;25.80
75822;BMP180;64454;51.984;9.838;2023-07-20T10:57:30;100033.00;;;26.10
75822;BMP180;64454;51.984;9.838;2023-07-20T11:00:10;100024.00;;;26.40
75822;BMP180;64454;51.984;9.838;2023-07-20T11:02:46;100041.00;;;25.90
75822;BMP180;64454;51.984;9.838;2023-07-20T11:08:39;100049.00;;;24.10
75822;BMP180;64454;51.984;9.838;2023-07-20T11:11:25;100049.00;;;24.10
75822;BMP180;64454;51.984;9.838;2023-07-20T11:13:57;100050.00;;;23.40
75822;BMP180;64454;51.984;9.838;2023-07-20T11:16:39;100029.00;;;23.40
75822;BMP180;64454;51.984;9.838;2023-07-20T11:19:14;100050.00;;;24.10
75822;BMP180;64454;51.984;9.838;2023-07-20T11:21:45;100054.00;;;24.10
75822;BMP180;64454;51.984;9.838;2023-07-20T11:24:16;100054.00;;;23.90
75822;BMP180;64454;51.984;9.838;2023-07-20T11:26:47;100049.00;;;23.80
75822;BMP180;64454;51.984;9.838;2023-07-20T11:29:18;100051.00;;;24.20
75822;BMP180;64454;51.984;9.838;2023-07-20T11:31:47;100056.00;;;24.00
75822;BMP180;64454;51.984;9.838;2023-07-20T11:34:18;100039.00;;;24.10
75822;BMP180;64454;51.984;9.838;2023-07-20T11:36:48;100032.00;;;25.00
75822;BMP180;64454;51.984;9.838;2023-07-20T11:39:21;100032.00;;;25.70
75822;BMP180;64454;51.984;9.838;2023-07-20T11:41:52;100042.00;;;25.30
75822;BMP180;64454;51.984;9.838;2023-07-20T11:44:21;100036.00;;;24.20
75822;BMP180;64454;51.984;9.838;2023-07-20T11:46:59;100041.00;;;24.30
75822;BMP180;64454;51.984;9.838;2023-07-20T11:49:27;100027.00;;;24.10
75822;BMP180;64454;51.984;9.838;2023-07-20T11:51:56;100020.00;;;24.50
75822;BMP180;64454;51.984;9.838;2023-07-20T11:54:25;100025.00;;;24.70
75822;BMP180;64454;51.984;9.838;2023-07-20T11:56:54;100015.00;;;25.00
75822;BMP180;64454;51.984;9.838;2023-07-20T11:59:21;100032.00;;;25.60
75822;BMP180;64454;51.984;9.838;2023-07-20T12:01:49;100032.00;;;25.10
75822;BMP180;64454;51.984;9.838;2023-07-20T12:04:18;100009.00;;;25.00
75822;BMP180;64454;51.984;9.838;2023-07-20T12:06:46;100015.00;;;25.40
75822;BMP180;64454;51.984;9.838;2023-07-20T12:09:17;100015.00;;;25.90
75822;BMP180;64454;51.984;9.838;2023-07-20T12:11:49;100014.00;;;24.80
75822;BMP180;64454;51.984;9.838;2023-07-20T12:14:19;100008.00;;;25.90
75822;BMP180;64454;51.984;9.838;2023-07-20T12:16:53;100018.00;;;26.50
75822;BMP180;64454;51.984;9.838;2023-07-20T12:19:20;100024.00;;;25.50
75822;BMP180;64454;51.984;9.838;2023-07-20T12:21:47;100012.00;;;25.50
75822;BMP180;64454;51.984;9.838;2023-07-20T12:24:17;100019.00;;;26.40
75822;BMP180;64454;51.984;9.838;2023-07-20T12:26:47;100025.00;;;26.00
75822;BMP180;64454;51.984;9.838;2023-07-20T12:29:15;100025.00;;;25.30
75822;BMP180;64454;51.984;9.838;2023-07-20T12:31:43;100026.00;;;25.20
75822;BMP180;64454;51.984;9.838;2023-07-20T12:34:10;100029.00;;;24.80
75822;BMP180;64454;51.984;9.838;2023-07-20T12:36:37;100013.00;;;25.30
75822;BMP180;64454;51.984;9.838;2023-07-20T12:39:04;100014.00;;;26.10
75822;BMP180;64454;51.984;9.838;2023-07-20T12:41:31;100009.00;;;26.10
75822;BMP180;64454;51.984;9.838;2023-07-20T12:43:59;100006.00;;;26.50
75822;BMP180;64454;51.984;9.838;2023-07-20T12:46:26;100003.00;;;26.80
75822;BMP180;64454;51.984;9.838;2023-07-20T12:48:55;100018.00;;;26.80
75822;BMP180;64454;51.984;9.838;2023-07-20T12:51:22;100004.00;;;25.90
75822;BMP180;64454;51.984;9.838;2023-07-20T12:53:49;100008.00;;;26.40
75822;BMP180;64454;51.984;9.838;2023-07-20T12:56:16;100007.00;;;26.00
75822;BMP180;64454;51.984;9.838;2023-07-20T12:58:43;100007.00;;;25.90
75822;BMP180;64454;51.984;9.838;2023-07-20T13:01:11;100010.00;;;25.50
75822;BMP180;64454;51.984;9.838;2023-07-20T13:03:38;100004.00;;;25.10
75822;BMP180;64454;51.984;9.838;2023-07-20T13:06:05;99997.00;;;25.40
75822;BMP180;64454;51.984;9.838;2023-07-20T13:08:32;100002.00;;;25.80
75822;BMP180;64454;51.984;9.838;2023-07-20T13:10:59;100000.00;;;26.40
75822;BMP180;64454;51.984;9.838;2023-07-20T13:13:26;99992.00;;;26.60
75822;BMP180;64454;51.984;9.838;2023-07-20T13:15:53;99997.00;;;26.30
75822;BMP180;64454;51.984;9.838;2023-07-20T13:18:24;99999.00;;;26.30
75822;BMP180;64454;51.984;9.838;2023-07-20T13:20:52;99995.00;;;25.90
75822;BMP180;64454;51.984;9.838;2023-07-20T13:23:19;100005.00;;;25.50
75822;BMP180;64454;51.984;9.838;2023-07-20T13:25:45;99987.00;;;25.00
75822;BMP180;64454;51.984;9.838;2023-07-20T13:28:12;100002.00;;;25.30
75822;BMP180;64454;51.984;9.838;2023-07-20T13:30:39;100006.00;;;25.20
75822;BMP180;64454;51.984;9.838;2023-07-20T13:33:06;100006.00;;;25.30
75822;BMP180;64454;51.984;9.838;2023-07-20T13:35:34;100004.00;;;24.50
75822;BMP180;64454;51.984;9.838;2023-07-20T13:38:01;100010.00;;;24.70
75822;BMP180;64454;51.984;9.838;2023-07-20T13:40:28;100013.00;;;24.40
75822;BMP180;64454;51.984;9.838;2023-07-20T13:42:55;100011.00;;;24.30
75822;BMP180;64454;51.984;9.838;2023-07-20T13:45:22;100017.00;;;24.00
75822;BMP180;64454;51.984;9.838;2023-07-20T13:47:49;100016.00;;;23.70
75822;BMP180;64454;51.984;9.838;2023-07-20T13:50:16;100021.00;;;23.60
75822;BMP180;64454;51.984;9.838;2023-07-20T13:52:44;100025.00;;;23.20
75822;BMP180;64454;51.984;9.838;2023-07-20T13:55:11;100025.00;;;23.00
75822;BMP180;64454;51.984;9.838;2023-07-20T13:57:38;100023.00;;;23.10
75822;BMP180;64454;51.984;9.838;2023-07-20T14:00:07;100020.00;;;22.90
75822;BMP180;64454;51.984;9.838;2023-07-20T14:02:36;100020.00;;;22.90
75822;BMP180;64454;51.984;9.838;2023-07-20T14:05:04;100027.00;;;23.10
75822;BMP180;64454;51.984;9.838;2023-07-20T14:07:31;100027.00;;;23.20
75822;BMP180;64454;51.984;9.838;2023-07-20T14:09:59;100026.00;;;23.20
75822;BMP180;64454;51.984;9.838;2023-07-20T14:12:26;100019.00;;;23.70
75822;BMP180;64454;51.984;9.838;2023-07-20T14:14:54;100016.00;;;24.40
75822;BMP180;64454;51.984;9.838;2023-07-20T14:17:20;100013.00;;;25.10
75822;BMP180;64454;51.984;9.838;2023-07-20T14:19:47;100012.00;;;25.60